Henley in Arden, United Kingdom
Current Conditions -  °F | °C
As of 1:50 PM on Wednesday 26 Nov 2014 (Local Time) from EGBB Reporting Station
Haze Haze  
Wind Chill: 44°   Ceiling: 300
Heat Index: 46°   Visibility: 1.6mi
Dew Point: 45°   Wind: 5mph
Humidity: 93%   Direction: 10°N
Pressure: 29.83"   Gusts: NA
Location:  52.29°N, 1.78°W
Report Text: EGBB 261350Z 01004KT 340V050 2600 BR OVC003 08/07 Q1010
Loading
Personal Weather Stations






























Interactive Weather Map New forecast layout! Learn more

10-Day Weather Forecast

Advertisements
Track Severe Weather on mobile